sensor_id;sensor_type;location;lat;lon;timestamp;pressure;altitude;pressure_sealevel;temperature;humidity
59831;BME280;45711;50.108;13.712;2023-11-19T00:01:02;98047.75;;;3.79;91.50
59831;BME280;45711;50.108;13.712;2023-11-19T00:03:30;98051.75;;;3.82;90.90
59831;BME280;45711;50.108;13.712;2023-11-19T00:05:56;98041.19;;;3.82;91.40
59831;BME280;45711;50.108;13.712;2023-11-19T00:08:21;98038.41;;;3.88;91.44
59831;BME280;45711;50.108;13.712;2023-11-19T00:10:47;98034.63;;;3.37;90.58
59831;BME280;45711;50.108;13.712;2023-11-19T00:13:13;98037.16;;;3.32;92.78
59831;BME280;45711;50.108;13.712;2023-11-19T00:15:38;98036.13;;;3.68;91.48
59831;BME280;45711;50.108;13.712;2023-11-19T00:18:07;98017.59;;;3.57;92.99
59831;BME280;45711;50.108;13.712;2023-11-19T00:20:33;98015.41;;;3.42;92.56
59831;BME280;45711;50.108;13.712;2023-11-19T00:22:58;98012.06;;;3.35;92.41
59831;BME280;45711;50.108;13.712;2023-11-19T00:25:24;98016.00;;;3.32;93.35
59831;BME280;45711;50.108;13.712;2023-11-19T00:27:50;97987.31;;;3.17;93.58
59831;BME280;45711;50.108;13.712;2023-11-19T00:30:17;97984.34;;;3.14;94.77
59831;BME280;45711;50.108;13.712;2023-11-19T00:32:42;97998.84;;;3.23;94.50
59831;BME280;45711;50.108;13.712;2023-11-19T00:35:12;97991.25;;;3.38;94.97
59831;BME280;45711;50.108;13.712;2023-11-19T00:37:40;97993.66;;;3.51;93.68
59831;BME280;45711;50.108;13.712;2023-11-19T00:40:08;97990.34;;;3.44;93.90
59831;BME280;45711;50.108;13.712;2023-11-19T00:42:35;97969.50;;;3.48;93.68
59831;BME280;45711;50.108;13.712;2023-11-19T00:45:01;97967.47;;;4.02;94.27
59831;BME280;45711;50.108;13.712;2023-11-19T00:47:27;97955.91;;;3.80;92.81
59831;BME280;45711;50.108;13.712;2023-11-19T00:49:52;97945.06;;;3.81;92.82
59831;BME280;45711;50.108;13.712;2023-11-19T00:52:19;97947.53;;;3.71;93.93
59831;BME280;45711;50.108;13.712;2023-11-19T00:54:45;97945.56;;;3.66;92.18
59831;BME280;45711;50.108;13.712;2023-11-19T00:57:10;97949.13;;;3.60;93.33
59831;BME280;45711;50.108;13.712;2023-11-19T00:59:36;97954.09;;;3.57;92.88
59831;BME280;45711;50.108;13.712;2023-11-19T01:02:01;97947.97;;;3.80;93.77
59831;BME280;45711;50.108;13.712;2023-11-19T01:04:28;97937.72;;;3.83;92.05
59831;BME280;45711;50.108;13.712;2023-11-19T01:06:54;97927.72;;;3.73;91.52
59831;BME280;45711;50.108;13.712;2023-11-19T01:09:21;97920.72;;;3.67;91.96
59831;BME280;45711;50.108;13.712;2023-11-19T01:11:46;97914.47;;;3.73;93.53
59831;BME280;45711;50.108;13.712;2023-11-19T01:14:12;97923.91;;;3.69;92.96
59831;BME280;45711;50.108;13.712;2023-11-19T01:16:38;97912.44;;;3.52;92.04
59831;BME280;45711;50.108;13.712;2023-11-19T01:19:03;97893.91;;;3.52;92.34
59831;BME280;45711;50.108;13.712;2023-11-19T01:21:30;97893.59;;;3.48;92.97
59831;BME280;45711;50.108;13.712;2023-11-19T01:23:55;97892.78;;;3.48;94.24
59831;BME280;45711;50.108;13.712;2023-11-19T01:26:22;97888.78;;;3.45;93.72
59831;BME280;45711;50.108;13.712;2023-11-19T01:28:48;97893.59;;;3.48;93.83
59831;BME280;45711;50.108;13.712;2023-11-19T01:31:15;97890.72;;;3.50;94.79
59831;BME280;45711;50.108;13.712;2023-11-19T01:33:40;97896.56;;;3.64;94.90
59831;BME280;45711;50.108;13.712;2023-11-19T01:36:08;97886.41;;;3.72;94.27
59831;BME280;45711;50.108;13.712;2023-11-19T01:38:33;97880.13;;;3.62;92.97
59831;BME280;45711;50.108;13.712;2023-11-19T01:40:59;97875.28;;;3.59;93.19
59831;BME280;45711;50.108;13.712;2023-11-19T01:43:34;97874.69;;;3.57;92.75
59831;BME280;45711;50.108;13.712;2023-11-19T01:45:59;97882.28;;;3.65;93.27
59831;BME280;45711;50.108;13.712;2023-11-19T01:48:25;97889.19;;;3.66;93.12
59831;BME280;45711;50.108;13.712;2023-11-19T01:50:52;97874.03;;;3.49;93.29
59831;BME280;45711;50.108;13.712;2023-11-19T01:53:18;97883.47;;;3.86;94.21
59831;BME280;45711;50.108;13.712;2023-11-19T01:55:44;97857.38;;;3.77;92.64
59831;BME280;45711;50.108;13.712;2023-11-19T01:58:10;97836.78;;;3.80;92.29
59831;BME280;45711;50.108;13.712;2023-11-19T02:00:39;97833.06;;;3.52;92.33
59831;BME280;45711;50.108;13.712;2023-11-19T02:03:05;97833.75;;;3.59;94.00
59831;BME280;45711;50.108;13.712;2023-11-19T02:05:33;97828.47;;;3.47;93.73
59831;BME280;45711;50.108;13.712;2023-11-19T02:08:00;97845.16;;;3.88;93.02
59831;BME280;45711;50.108;13.712;2023-11-19T02:10:26;97826.75;;;3.82;93.45
59831;BME280;45711;50.108;13.712;2023-11-19T02:12:52;97824.63;;;3.67;92.64
59831;BME280;45711;50.108;13.712;2023-11-19T02:15:17;97817.31;;;3.57;93.65
59831;BME280;45711;50.108;13.712;2023-11-19T02:17:48;97807.41;;;3.52;94.29
59831;BME280;45711;50.108;13.712;2023-11-19T02:20:14;97790.38;;;3.60;94.34
59831;BME280;45711;50.108;13.712;2023-11-19T02:22:40;97802.53;;;3.61;93.82
59831;BME280;45711;50.108;13.712;2023-11-19T02:25:07;97799.72;;;3.80;93.47
59831;BME280;45711;50.108;13.712;2023-11-19T02:27:46;97797.94;;;3.68;93.74
59831;BME280;45711;50.108;13.712;2023-11-19T02:30:12;97803.03;;;3.58;93.83
59831;BME280;45711;50.108;13.712;2023-11-19T02:32:41;97812.53;;;3.71;94.06
59831;BME280;45711;50.108;13.712;2023-11-19T02:35:07;97802.00;;;3.59;93.94
59831;BME280;45711;50.108;13.712;2023-11-19T02:37:37;97793.28;;;3.47;95.20
59831;BME280;45711;50.108;13.712;2023-11-19T02:40:04;97778.78;;;3.49;95.23
59831;BME280;45711;50.108;13.712;2023-11-19T02:42:31;97766.78;;;3.59;95.76
59831;BME280;45711;50.108;13.712;2023-11-19T02:44:58;97757.13;;;3.52;94.30
59831;BME280;45711;50.108;13.712;2023-11-19T02:47:24;97743.91;;;3.52;95.11
59831;BME280;45711;50.108;13.712;2023-11-19T02:49:49;97738.72;;;3.58;95.42
59831;BME280;45711;50.108;13.712;2023-11-19T02:52:15;97728.31;;;3.68;94.63
59831;BME280;45711;50.108;13.712;2023-11-19T02:54:42;97724.91;;;3.56;95.74
59831;BME280;45711;50.108;13.712;2023-11-19T02:57:08;97730.19;;;3.84;95.47
59831;BME280;45711;50.108;13.712;2023-11-19T02:59:37;97729.28;;;3.62;94.67
59831;BME280;45711;50.108;13.712;2023-11-19T03:02:05;97725.34;;;3.64;95.38
59831;BME280;45711;50.108;13.712;2023-11-19T03:04:37;97709.56;;;3.86;95.57
59831;BME280;45711;50.108;13.712;2023-11-19T03:07:06;97713.72;;;3.82;94.05
59831;BME280;45711;50.108;13.712;2023-11-19T03:09:32;97709.47;;;3.64;94.22
59831;BME280;45711;50.108;13.712;2023-11-19T03:11:59;97707.06;;;3.63;95.24
59831;BME280;45711;50.108;13.712;2023-11-19T03:14:24;97694.78;;;3.57;95.47
59831;BME280;45711;50.108;13.712;2023-11-19T03:16:50;97693.88;;;3.51;95.27
59831;BME280;45711;50.108;13.712;2023-11-19T03:19:17;97694.47;;;3.53;96.88
59831;BME280;45711;50.108;13.712;2023-11-19T03:21:43;97689.88;;;3.65;95.90
59831;BME280;45711;50.108;13.712;2023-11-19T03:24:10;97684.72;;;3.70;95.50
59831;BME280;45711;50.108;13.712;2023-11-19T03:26:35;97684.38;;;3.67;95.49
59831;BME280;45711;50.108;13.712;2023-11-19T03:29:02;97669.31;;;4.01;96.10
59831;BME280;45711;50.108;13.712;2023-11-19T03:31:28;97672.28;;;3.88;95.14
59831;BME280;45711;50.108;13.712;2023-11-19T03:33:54;97670.75;;;3.75;95.17
59831;BME280;45711;50.108;13.712;2023-11-19T03:36:21;97670.25;;;3.78;95.58
59831;BME280;45711;50.108;13.712;2023-11-19T03:38:46;97668.81;;;3.70;95.04
59831;BME280;45711;50.108;13.712;2023-11-19T03:41:12;97665.69;;;3.73;95.19
59831;BME280;45711;50.108;13.712;2023-11-19T03:43:38;97667.84;;;3.76;95.86
59831;BME280;45711;50.108;13.712;2023-11-19T03:46:05;97667.44;;;3.68;95.76
59831;BME280;45711;50.108;13.712;2023-11-19T03:48:30;97668.00;;;3.70;96.31
59831;BME280;45711;50.108;13.712;2023-11-19T03:50:56;97658.25;;;3.70;96.49
59831;BME280;45711;50.108;13.712;2023-11-19T03:53:23;97659.03;;;3.71;96.37
59831;BME280;45711;50.108;13.712;2023-11-19T03:55:49;97649.25;;;3.71;95.82
59831;BME280;45711;50.108;13.712;2023-11-19T03:58:15;97648.59;;;3.98;95.58
59831;BME280;45711;50.108;13.712;2023-11-19T04:00:41;97641.19;;;4.00;94.44
59831;BME280;45711;50.108;13.712;2023-11-19T04:03:06;97632.47;;;3.83;95.07
59831;BME280;45711;50.108;13.712;2023-11-19T04:05:32;97621.88;;;3.99;95.06
59831;BME280;45711;50.108;13.712;2023-11-19T04:07:58;97615.97;;;3.92;94.59
59831;BME280;45711;50.108;13.712;2023-11-19T04:10:25;97612.81;;;3.78;94.48
59831;BME280;45711;50.108;13.712;2023-11-19T04:12:50;97613.31;;;3.75;95.11
59831;BME280;45711;50.108;13.712;2023-11-19T04:15:16;97611.59;;;4.03;95.03
59831;BME280;45711;50.108;13.712;2023-11-19T04:17:41;97608.25;;;3.74;94.85
59831;BME280;45711;50.108;13.712;2023-11-19T04:20:07;97603.59;;;3.81;95.96
59831;BME280;45711;50.108;13.712;2023-11-19T04:22:37;97596.84;;;3.90;95.72
59831;BME280;45711;50.108;13.712;2023-11-19T04:25:03;97591.88;;;3.94;96.02
59831;BME280;45711;50.108;13.712;2023-11-19T04:27:32;97584.81;;;3.83;96.06
59831;BME280;45711;50.108;13.712;2023-11-19T04:29:58;97579.13;;;3.74;96.19
59831;BME280;45711;50.108;13.712;2023-11-19T04:32:25;97573.06;;;3.73;96.99
59831;BME280;45711;50.108;13.712;2023-11-19T04:34:52;97574.34;;;3.71;97.69
59831;BME280;45711;50.108;13.712;2023-11-19T04:37:17;97578.66;;;3.77;97.95
59831;BME280;45711;50.108;13.712;2023-11-19T04:39:44;97567.28;;;3.76;97.60
59831;BME280;45711;50.108;13.712;2023-11-19T04:42:09;97565.44;;;3.77;96.88
59831;BME280;45711;50.108;13.712;2023-11-19T04:44:36;97557.56;;;3.65;98.45
59831;BME280;45711;50.108;13.712;2023-11-19T04:47:02;97552.25;;;3.82;97.30
59831;BME280;45711;50.108;13.712;2023-11-19T04:49:27;97551.25;;;3.83;97.59
59831;BME280;45711;50.108;13.712;2023-11-19T04:51:53;97554.53;;;4.12;97.49
59831;BME280;45711;50.108;13.712;2023-11-19T04:54:21;97547.50;;;4.01;96.95
59831;BME280;45711;50.108;13.712;2023-11-19T04:56:47;97540.34;;;3.80;97.91
59831;BME280;45711;50.108;13.712;2023-11-19T04:59:13;97528.81;;;3.91;97.67
59831;BME280;45711;50.108;13.712;2023-11-19T05:01:40;97533.13;;;3.75;98.09
59831;BME280;45711;50.108;13.712;2023-11-19T05:04:07;97524.63;;;3.95;98.75
59831;BME280;45711;50.108;13.712;2023-11-19T05:06:32;97527.47;;;3.88;97.83
59831;BME280;45711;50.108;13.712;2023-11-19T05:08:59;97520.19;;;3.78;98.10
59831;BME280;45711;50.108;13.712;2023-11-19T05:11:33;97523.78;;;3.89;99.25
59831;BME280;45711;50.108;13.712;2023-11-19T05:13:59;97522.75;;;3.73;98.22
59831;BME280;45711;50.108;13.712;2023-11-19T05:16:25;97521.00;;;3.79;98.68
59831;BME280;45711;50.108;13.712;2023-11-19T05:18:52;97522.97;;;3.89;98.44
59831;BME280;45711;50.108;13.712;2023-11-19T05:21:17;97505.44;;;4.48;98.18
59831;BME280;45711;50.108;13.712;2023-11-19T05:23:43;97495.09;;;4.03;97.74
59831;BME280;45711;50.108;13.712;2023-11-19T05:26:08;97492.81;;;3.90;98.22
59831;BME280;45711;50.108;13.712;2023-11-19T05:28:37;97485.44;;;3.92;98.58
59831;BME280;45711;50.108;13.712;2023-11-19T05:31:03;97479.69;;;4.00;99.36
59831;BME280;45711;50.108;13.712;2023-11-19T05:33:29;97475.75;;;4.02;99.21
59831;BME280;45711;50.108;13.712;2023-11-19T05:35:56;97485.22;;;4.69;97.54
59831;BME280;45711;50.108;13.712;2023-11-19T05:38:22;97478.88;;;4.21;97.13
59831;BME280;45711;50.108;13.712;2023-11-19T05:40:48;97475.25;;;4.27;96.65
59831;BME280;45711;50.108;13.712;2023-11-19T05:43:13;97469.44;;;5.17;93.84
59831;BME280;45711;50.108;13.712;2023-11-19T05:45:40;97468.34;;;5.13;93.45
59831;BME280;45711;50.108;13.712;2023-11-19T05:48:05;97470.28;;;4.58;92.37
59831;BME280;45711;50.108;13.712;2023-11-19T05:50:31;97479.06;;;4.37;93.95
59831;BME280;45711;50.108;13.712;2023-11-19T05:52:58;97468.69;;;4.08;95.65
59831;BME280;45711;50.108;13.712;2023-11-19T05:55:24;97481.31;;;4.01;97.58
59831;BME280;45711;50.108;13.712;2023-11-19T05:57:50;97470.19;;;4.26;98.27
59831;BME280;45711;50.108;13.712;2023-11-19T06:00:17;97471.91;;;4.37;96.43
59831;BME280;45711;50.108;13.712;2023-11-19T06:02:43;97470.34;;;4.14;98.58
59831;BME280;45711;50.108;13.712;2023-11-19T06:05:15;97476.28;;;4.75;97.45
59831;BME280;45711;50.108;13.712;2023-11-19T06:07:40;97468.81;;;4.45;95.93
59831;BME280;45711;50.108;13.712;2023-11-19T06:10:11;97461.19;;;5.13;93.72
59831;BME280;45711;50.108;13.712;2023-11-19T06:12:38;97447.91;;;5.50;91.51
59831;BME280;45711;50.108;13.712;2023-11-19T06:15:11;97435.41;;;5.03;89.96
59831;BME280;45711;50.108;13.712;2023-11-19T06:17:36;97452.22;;;4.55;93.47
59831;BME280;45711;50.108;13.712;2023-11-19T06:20:03;97460.25;;;5.29;92.29
59831;BME280;45711;50.108;13.712;2023-11-19T06:22:30;97460.06;;;5.41;90.60
59831;BME280;45711;50.108;13.712;2023-11-19T06:24:55;97457.97;;;5.06;90.80
59831;BME280;45711;50.108;13.712;2023-11-19T06:27:25;97457.69;;;5.02;90.27
59831;BME280;45711;50.108;13.712;2023-11-19T06:29:51;97449.53;;;4.82;93.69
59831;BME280;45711;50.108;13.712;2023-11-19T06:32:17;97454.31;;;4.80;94.43
59831;BME280;45711;50.108;13.712;2023-11-19T06:34:42;97452.44;;;4.48;95.34
59831;BME280;45711;50.108;13.712;2023-11-19T06:37:08;97459.53;;;5.02;95.43
59831;BME280;45711;50.108;13.712;2023-11-19T06:39:34;97462.84;;;4.87;94.63
59831;BME280;45711;50.108;13.712;2023-11-19T06:42:00;97448.72;;;4.49;95.34
59831;BME280;45711;50.108;13.712;2023-11-19T06:44:27;97438.94;;;4.23;97.69
59831;BME280;45711;50.108;13.712;2023-11-19T06:46:53;97452.03;;;4.62;97.96
59831;BME280;45711;50.108;13.712;2023-11-19T06:49:19;97460.81;;;4.99;96.12
59831;BME280;45711;50.108;13.712;2023-11-19T06:51:44;97453.00;;;4.83;95.13
59831;BME280;45711;50.108;13.712;2023-11-19T06:54:11;97455.34;;;5.11;94.55
59831;BME280;45711;50.108;13.712;2023-11-19T06:56:46;97457.34;;;4.94;93.89
59831;BME280;45711;50.108;13.712;2023-11-19T06:59:11;97442.81;;;4.69;96.36
59831;BME280;45711;50.108;13.712;2023-11-19T07:01:41;97445.56;;;4.52;97.57
59831;BME280;45711;50.108;13.712;2023-11-19T07:04:10;97441.50;;;4.40;99.06
59831;BME280;45711;50.108;13.712;2023-11-19T07:06:36;97453.59;;;4.58;99.27
59831;BME280;45711;50.108;13.712;2023-11-19T07:09:10;97448.72;;;4.76;98.49
59831;BME280;45711;50.108;13.712;2023-11-19T07:11:37;97453.38;;;4.64;98.70
59831;BME280;45711;50.108;13.712;2023-11-19T07:14:04;97439.31;;;4.64;99.54
59831;BME280;45711;50.108;13.712;2023-11-19T07:16:30;97459.41;;;4.60;100.00
59831;BME280;45711;50.108;13.712;2023-11-19T07:19:01;97468.91;;;5.15;98.01
59831;BME280;45711;50.108;13.712;2023-11-19T07:21:27;97465.91;;;5.43;94.61
59831;BME280;45711;50.108;13.712;2023-11-19T07:24:02;97451.53;;;5.34;94.25
59831;BME280;45711;50.108;13.712;2023-11-19T07:26:28;97459.03;;;5.05;95.23
59831;BME280;45711;50.108;13.712;2023-11-19T07:28:57;97453.41;;;4.96;96.65
59831;BME280;45711;50.108;13.712;2023-11-19T07:31:23;97455.13;;;5.18;96.43
59831;BME280;45711;50.108;13.712;2023-11-19T07:33:49;97453.13;;;4.98;97.73
59831;BME280;45711;50.108;13.712;2023-11-19T07:36:38;97457.06;;;5.27;96.78
59831;BME280;45711;50.108;13.712;2023-11-19T07:39:04;97466.94;;;5.00;97.77
59831;BME280;45711;50.108;13.712;2023-11-19T07:41:30;97460.63;;;5.06;98.34
59831;BME280;45711;50.108;13.712;2023-11-19T07:43:55;97450.09;;;5.16;97.49
59831;BME280;45711;50.108;13.712;2023-11-19T07:46:21;97440.78;;;5.56;94.54
59831;BME280;45711;50.108;13.712;2023-11-19T07:48:50;97426.81;;;5.71;91.81
59831;BME280;45711;50.108;13.712;2023-11-19T07:51:16;97426.53;;;5.72;90.65
59831;BME280;45711;50.108;13.712;2023-11-19T07:53:42;97434.34;;;5.42;93.35
59831;BME280;45711;50.108;13.712;2023-11-19T07:56:10;97429.69;;;5.69;91.15
59831;BME280;45711;50.108;13.712;2023-11-19T07:58:38;97437.94;;;5.73;91.32
59831;BME280;45711;50.108;13.712;2023-11-19T08:01:05;97434.47;;;5.62;92.24
59831;BME280;45711;50.108;13.712;2023-11-19T08:03:30;97431.50;;;5.53;92.52
59831;BME280;45711;50.108;13.712;2023-11-19T08:05:56;97432.38;;;5.74;92.09
59831;BME280;45711;50.108;13.712;2023-11-19T08:08:27;97425.25;;;5.80;89.79
59831;BME280;45711;50.108;13.712;2023-11-19T08:11:16;97439.59;;;5.84;90.03
59831;BME280;45711;50.108;13.712;2023-11-19T08:13:42;97445.69;;;5.79;90.77
59831;BME280;45711;50.108;13.712;2023-11-19T08:16:08;97441.47;;;5.84;90.94
59831;BME280;45711;50.108;13.712;2023-11-19T08:18:41;97443.56;;;5.87;89.82
59831;BME280;45711;50.108;13.712;2023-11-19T08:21:06;97439.34;;;5.86;91.20
59831;BME280;45711;50.108;13.712;2023-11-19T08:23:32;97441.69;;;5.82;91.05
59831;BME280;45711;50.108;13.712;2023-11-19T08:25:58;97427.19;;;5.95;89.43
59831;BME280;45711;50.108;13.712;2023-11-19T08:28:25;97428.53;;;5.92;90.28
59831;BME280;45711;50.108;13.712;2023-11-19T08:30:50;97414.69;;;5.95;89.03
59831;BME280;45711;50.108;13.712;2023-11-19T08:33:16;97414.47;;;5.97;89.46
59831;BME280;45711;50.108;13.712;2023-11-19T08:35:42;97409.94;;;5.97;88.95
59831;BME280;45711;50.108;13.712;2023-11-19T08:38:11;97398.53;;;5.97;89.03
59831;BME280;45711;50.108;13.712;2023-11-19T08:40:36;97391.06;;;5.99;89.15
59831;BME280;45711;50.108;13.712;2023-11-19T08:43:07;97407.28;;;6.02;89.09
59831;BME280;45711;50.108;13.712;2023-11-19T08:45:34;97397.97;;;6.00;88.99
59831;BME280;45711;50.108;13.712;2023-11-19T08:47:59;97385.75;;;5.99;88.93
59831;BME280;45711;50.108;13.712;2023-11-19T08:50:25;97382.59;;;6.07;88.85
59831;BME280;45711;50.108;13.712;2023-11-19T08:52:52;97372.75;;;6.02;89.39
59831;BME280;45711;50.108;13.712;2023-11-19T08:55:21;97368.78;;;6.05;89.72
59831;BME280;45711;50.108;13.712;2023-11-19T08:57:46;97377.00;;;6.09;88.88
59831;BME280;45711;50.108;13.712;2023-11-19T09:00:24;97385.28;;;6.12;88.46
59831;BME280;45711;50.108;13.712;2023-11-19T09:02:55;97401.72;;;6.04;89.65
59831;BME280;45711;50.108;13.712;2023-11-19T09:05:21;97409.41;;;6.00;90.79
59831;BME280;45711;50.108;13.712;2023-11-19T09:07:54;97417.38;;;6.00;90.60
59831;BME280;45711;50.108;13.712;2023-11-19T09:10:20;97423.75;;;6.04;90.41
59831;BME280;45711;50.108;13.712;2023-11-19T09:12:45;97428.28;;;6.09;89.67
59831;BME280;45711;50.108;13.712;2023-11-19T09:15:11;97422.16;;;6.03;90.24
59831;BME280;45711;50.108;13.712;2023-11-19T09:17:37;97411.28;;;6.05;90.71
59831;BME280;45711;50.108;13.712;2023-11-19T09:20:05;97409.19;;;6.17;91.44
59831;BME280;45711;50.108;13.712;2023-11-19T09:22:30;97412.13;;;6.21;89.13
59831;BME280;45711;50.108;13.712;2023-11-19T09:24:56;97401.75;;;6.19;90.09
59831;BME280;45711;50.108;13.712;2023-11-19T09:27:25;97412.69;;;6.23;88.81
59831;BME280;45711;50.108;13.712;2023-11-19T09:29:51;97419.56;;;6.24;89.71
59831;BME280;45711;50.108;13.712;2023-11-19T09:32:22;97418.78;;;6.18;88.88
59831;BME280;45711;50.108;13.712;2023-11-19T09:34:48;97417.72;;;6.19;89.15
59831;BME280;45711;50.108;13.712;2023-11-19T09:37:15;97411.88;;;6.27;89.19
59831;BME280;45711;50.108;13.712;2023-11-19T09:39:41;97411.88;;;6.27;89.48
59831;BME280;45711;50.108;13.712;2023-11-19T09:42:08;97412.41;;;6.29;89.62
59831;BME280;45711;50.108;13.712;2023-11-19T09:44:34;97401.50;;;6.26;89.87
59831;BME280;45711;50.108;13.712;2023-11-19T09:46:59;97418.50;;;6.30;90.13
59831;BME280;45711;50.108;13.712;2023-11-19T09:49:26;97412.16;;;6.36;89.71
59831;BME280;45711;50.108;13.712;2023-11-19T09:51:52;97409.50;;;6.41;90.19
59831;BME280;45711;50.108;13.712;2023-11-19T09:54:19;97405.50;;;6.39;90.13
59831;BME280;45711;50.108;13.712;2023-11-19T09:56:45;97401.78;;;6.40;90.57
59831;BME280;45711;50.108;13.712;2023-11-19T09:59:14;97399.69;;;6.42;89.87
59831;BME280;45711;50.108;13.712;2023-11-19T10:01:40;97407.38;;;6.38;90.10
59831;BME280;45711;50.108;13.712;2023-11-19T10:04:07;97411.09;;;6.42;91.52
59831;BME280;45711;50.108;13.712;2023-11-19T10:06:32;97418.31;;;6.62;97.05
59831;BME280;45711;50.108;13.712;2023-11-19T10:08:58;97400.78;;;6.66;99.46
59831;BME280;45711;50.108;13.712;2023-11-19T10:11:26;97403.13;;;6.47;98.63
59831;BME280;45711;50.108;13.712;2023-11-19T10:13:52;97411.66;;;6.60;100.00
59831;BME280;45711;50.108;13.712;2023-11-19T10:16:18;97409.78;;;6.45;95.14
59831;BME280;45711;50.108;13.712;2023-11-19T10:18:45;97406.63;;;6.63;97.56
59831;BME280;45711;50.108;13.712;2023-11-19T10:21:12;97417.75;;;6.50;95.71
59831;BME280;45711;50.108;13.712;2023-11-19T10:23:49;97403.97;;;6.53;93.14
59831;BME280;45711;50.108;13.712;2023-11-19T10:26:18;97388.81;;;6.53;91.74
59831;BME280;45711;50.108;13.712;2023-11-19T10:28:45;97398.13;;;6.66;94.76
59831;BME280;45711;50.108;13.712;2023-11-19T10:31:12;97393.31;;;6.53;94.46
59831;BME280;45711;50.108;13.712;2023-11-19T10:33:38;97397.03;;;6.57;94.24
59831;BME280;45711;50.108;13.712;2023-11-19T10:36:04;97388.25;;;6.57;93.38
59831;BME280;45711;50.108;13.712;2023-11-19T10:38:30;97405.28;;;6.76;96.82
59831;BME280;45711;50.108;13.712;2023-11-19T10:40:56;97404.47;;;6.60;96.33
59831;BME280;45711;50.108;13.712;2023-11-19T10:43:22;97411.94;;;6.58;94.16
59831;BME280;45711;50.108;13.712;2023-11-19T10:45:50;97416.72;;;6.82;97.69
59831;BME280;45711;50.108;13.712;2023-11-19T10:48:15;97408.19;;;6.74;98.52
59831;BME280;45711;50.108;13.712;2023-11-19T10:50:42;97411.66;;;6.95;100.00
59831;BME280;45711;50.108;13.712;2023-11-19T10:53:12;97397.31;;;6.86;100.00
59831;BME280;45711;50.108;13.712;2023-11-19T10:55:41;97395.16;;;7.09;100.00
59831;BME280;45711;50.108;13.712;2023-11-19T10:58:10;97382.69;;;6.68;100.00
59831;BME280;45711;50.108;13.712;2023-11-19T11:00:38;97387.22;;;6.68;98.04
59831;BME280;45711;50.108;13.712;2023-11-19T11:03:11;97383.75;;;6.72;97.35
59831;BME280;45711;50.108;13.712;2023-11-19T11:05:37;97379.22;;;6.73;96.41
59831;BME280;45711;50.108;13.712;2023-11-19T11:08:06;97368.31;;;6.69;94.90
59831;BME280;45711;50.108;13.712;2023-11-19T11:10:36;97372.81;;;6.79;96.27
59831;BME280;45711;50.108;13.712;2023-11-19T11:13:05;97374.47;;;6.75;96.29
59831;BME280;45711;50.108;13.712;2023-11-19T11:15:31;97373.63;;;6.95;97.23
59831;BME280;45711;50.108;13.712;2023-11-19T11:17:59;97375.25;;;6.80;95.94
59831;BME280;45711;50.108;13.712;2023-11-19T11:20:28;97369.94;;;6.75;94.30
59831;BME280;45711;50.108;13.712;2023-11-19T11:23:08;97364.88;;;6.84;95.69
59831;BME280;45711;50.108;13.712;2023-11-19T11:25:44;97361.94;;;6.86;96.43
59831;BME280;45711;50.108;13.712;2023-11-19T11:28:24;97355.53;;;6.87;96.87
59831;BME280;45711;50.108;13.712;2023-11-19T11:31:15;97356.88;;;6.89;97.30
59831;BME280;45711;50.108;13.712;2023-11-19T11:33:59;97357.66;;;6.95;96.09
59831;BME280;45711;50.108;13.712;2023-11-19T11:36:31;97348.06;;;7.04;95.91
59831;BME280;45711;50.108;13.712;2023-11-19T11:39:02;97365.81;;;7.49;100.00
59831;BME280;45711;50.108;13.712;2023-11-19T11:41:33;97366.69;;;7.09;99.13
59831;BME280;45711;50.108;13.712;2023-11-19T11:43:58;97365.63;;;7.00;96.99
59831;BME280;45711;50.108;13.712;2023-11-19T11:46:54;97358.75;;;6.94;95.32
59831;BME280;45711;50.108;13.712;2023-11-19T11:49:27;97366.72;;;6.94;94.63
59831;BME280;45711;50.108;13.712;2023-11-19T11:52:03;97363.25;;;7.03;95.70
59831;BME280;45711;50.108;13.712;2023-11-19T11:54:28;97356.88;;;6.89;93.45
59831;BME280;45711;50.108;13.712;2023-11-19T11:57:07;97358.47;;;6.90;93.15
59831;BME280;45711;50.108;13.712;2023-11-19T11:59:43;97352.88;;;6.92;93.67
59831;BME280;45711;50.108;13.712;2023-11-19T12:02:10;97351.81;;;6.83;93.38
59831;BME280;45711;50.108;13.712;2023-11-19T12:04:36;97346.25;;;6.89;94.54
59831;BME280;45711;50.108;13.712;2023-11-19T12:07:16;97349.44;;;6.81;94.26
59831;BME280;45711;50.108;13.712;2023-11-19T12:09:42;97349.16;;;6.88;94.83
59831;BME280;45711;50.108;13.712;2023-11-19T12:12:18;97358.44;;;7.00;96.10
59831;BME280;45711;50.108;13.712;2023-11-19T12:15:02;97347.56;;;6.97;95.76
59831;BME280;45711;50.108;13.712;2023-11-19T12:17:44;97333.72;;;6.95;95.58
59831;BME280;45711;50.108;13.712;2023-11-19T12:20:14;97322.28;;;6.94;95.07
59831;BME280;45711;50.108;13.712;2023-11-19T12:22:42;97327.88;;;7.03;96.29
59831;BME280;45711;50.108;13.712;2023-11-19T12:25:10;97310.31;;;6.97;95.58
59831;BME280;45711;50.108;13.712;2023-11-19T12:27:37;97325.22;;;6.93;94.88
59831;BME280;45711;50.108;13.712;2023-11-19T12:30:08;97333.47;;;7.01;96.37
59831;BME280;45711;50.108;13.712;2023-11-19T12:32:38;97339.84;;;6.95;96.01
59831;BME280;45711;50.108;13.712;2023-11-19T12:35:06;97345.44;;;6.94;95.89
59831;BME280;45711;50.108;13.712;2023-11-19T12:37:39;97341.97;;;7.03;95.79
59831;BME280;45711;50.108;13.712;2023-11-19T12:40:14;97334.53;;;7.05;95.51
59831;BME280;45711;50.108;13.712;2023-11-19T12:42:43;97334.19;;;7.22;99.02
59831;BME280;45711;50.108;13.712;2023-11-19T12:45:09;97333.38;;;7.27;100.00
59831;BME280;45711;50.108;13.712;2023-11-19T12:47:39;97336.34;;;7.20;100.00
59831;BME280;45711;50.108;13.712;2023-11-19T12:50:09;97327.84;;;7.08;99.14
59831;BME280;45711;50.108;13.712;2023-11-19T12:52:35;97319.88;;;7.03;97.63
59831;BME280;45711;50.108;13.712;2023-11-19T12:55:02;97319.34;;;7.06;96.97
59831;BME280;45711;50.108;13.712;2023-11-19T12:57:41;97329.47;;;6.99;96.20
59831;BME280;45711;50.108;13.712;2023-11-19T13:00:18;97319.59;;;7.04;96.63
59831;BME280;45711;50.108;13.712;2023-11-19T13:02:50;97321.72;;;7.08;98.23